Time;durP1;ratioP1;P1;durP2;ratioP2;P2;SDS_P1;SDS_P2;PMS_P1;PMS_P2;Temp;Humidity;BMP_temperature;BMP_pressure;BME280_temperature;BME280_humidity;BME280_pressure;Samples;Min_cycle;Max_cycle;Signal;HPM_P1;HPM_P2
2022/10/18 00:00:08;;;;;;;10.60;1.98;;;;;;;8.42;100.00;99839.63;4945282;29;20510;-90
2022/10/18 00:02:34;;;;;;;7.05;1.98;;;;;;;8.24;100.00;99825.84;4960904;29;20042;-89
2022/10/18 00:05:00;;;;;;;6.38;1.92;;;;;;;8.38;100.00;99848.78;4944585;29;20035;-90
2022/10/18 00:07:25;;;;;;;15.90;2.00;;;;;;;8.43;100.00;99838.66;4960628;29;20034;-90
2022/10/18 00:09:52;;;;;;;8.35;2.15;;;;;;;8.49;100.00;99857.31;4944749;29;20036;-90
2022/10/18 00:12:17;;;;;;;9.65;2.10;;;;;;;8.56;100.00;99881.88;4960570;29;20036;-90
2022/10/18 00:14:43;;;;;;;13.95;2.75;;;;;;;8.36;100.00;99855.16;4958494;29;20039;-90
2022/10/18 00:17:12;;;;;;;11.95;2.05;;;;;;;8.52;100.00;99881.38;4945303;29;20039;-90
2022/10/18 00:19:37;;;;;;;11.32;2.88;;;;;;;8.43;100.00;99898.81;4962782;29;20486;-90
2022/10/18 00:22:03;;;;;;;15.77;2.58;;;;;;;8.50;100.00;99903.47;4946304;29;20067;-90
2022/10/18 00:24:28;;;;;;;12.70;2.25;;;;;;;8.41;100.00;99885.06;4948064;29;20015;-90
2022/10/18 00:26:57;;;;;;;18.70;3.00;;;;;;;8.34;100.00;99871.00;4947681;29;20039;-90
2022/10/18 00:29:22;;;;;;;11.50;2.10;;;;;;;8.38;100.00;99880.16;4947052;29;20110;-90
2022/10/18 00:31:48;;;;;;;17.83;2.92;;;;;;;8.53;100.00;99900.53;4948013;29;20035;-90
2022/10/18 00:34:15;;;;;;;23.35;2.70;;;;;;;8.56;100.00;99900.19;4947396;29;20035;-91
2022/10/18 00:36:42;;;;;;;12.50;3.47;;;;;;;8.55;100.00;99875.84;4947041;29;20034;-90
2022/10/18 00:39:14;;;;;;;10.57;2.85;;;;;;;8.68;100.00;99888.47;4947246;29;20035;-90
2022/10/18 00:41:42;;;;;;;21.02;2.67;;;;;;;8.96;100.00;99919.56;4946862;29;20051;-90
2022/10/18 00:44:11;;;;;;;9.30;2.30;;;;;;;9.13;100.00;99922.22;4949455;29;20039;-90
2022/10/18 00:46:40;;;;;;;12.85;2.40;;;;;;;9.03;100.00;99913.69;4947393;29;20517;-90
2022/10/18 00:49:11;;;;;;;20.02;2.25;;;;;;;8.96;100.00;99898.63;4946897;29;20035;-90
2022/10/18 00:51:52;;;;;;;13.60;2.25;;;;;;;9.12;100.00;99937.09;4947981;29;20031;-90
2022/10/18 00:54:19;;;;;;;13.68;3.45;;;;;;;8.84;100.00;99920.84;4945290;29;20034;-90
2022/10/18 00:56:45;;;;;;;13.55;2.10;;;;;;;8.56;100.00;99892.34;4944772;29;20494;-90
2022/10/18 00:59:14;;;;;;;12.00;2.60;;;;;;;8.77;100.00;99933.78;4945855;29;20042;-89
2022/10/18 01:01:40;;;;;;;9.65;1.90;;;;;;;8.54;100.00;99915.25;4945600;29;20039;-90
2022/10/18 01:04:06;;;;;;;17.83;3.97;;;;;;;8.64;100.00;99942.09;4944058;29;20035;-90
2022/10/18 01:06:39;;;;;;;11.70;2.00;;;;;;;8.42;100.00;99907.66;4940711;29;20032;-90
2022/10/18 01:09:22;;;;;;;9.43;2.25;;;;;;;8.53;100.00;99924.06;4958406;28;20035;-89
2022/10/18 01:11:48;;;;;;;;;;;;;;;8.56;100.00;99952.53;4963659;29;20098;-90
2022/10/18 01:14:59;;;;;;;5.72;2.05;;;;;;;8.43;100.00;99943.28;4962737;29;19914;-89
2022/10/18 01:18:10;;;;;;;11.65;2.28;;;;;;;8.25;100.00;99939.94;4962385;29;20437;-89
2022/10/18 01:21:04;;;;;;;7.65;2.38;;;;;;;8.14;100.00;99946.28;4901625;29;20115;-90
2022/10/18 01:23:44;;;;;;;;;;;;;;;8.04;100.00;99951.63;4963653;29;20090;-90
2022/10/18 01:26:19;;;;;;;8.68;1.60;;;;;;;7.85;100.00;99945.63;4948982;29;19914;-90
2022/10/18 01:28:50;;;;;;;14.85;2.95;;;;;;;7.95;100.00;99957.78;4949792;29;20050;-90
2022/10/18 01:31:22;;;;;;;13.77;1.95;;;;;;;7.71;100.00;99941.00;4950485;29;20039;-90
2022/10/18 01:33:52;;;;;;;9.30;2.17;;;;;;;7.68;100.00;99963.00;4949611;29;20046;-90
2022/10/18 01:36:31;;;;;;;10.23;2.17;;;;;;;7.47;100.00;99921.56;4949483;29;20035;-90
2022/10/18 01:39:01;;;;;;;9.40;1.98;;;;;;;7.64;100.00;99951.22;4965916;29;20099;-90
2022/10/18 01:41:28;;;;;;;7.40;1.88;;;;;;;7.64;100.00;99956.47;4963981;29;20113;-90
2022/10/18 01:43:59;;;;;;;20.30;2.45;;;;;;;7.60;100.00;99946.44;4964150;29;20035;-90
2022/10/18 01:46:38;;;;;;;11.63;2.00;;;;;;;7.62;100.00;99957.56;4959038;29;20027;-89
2022/10/18 01:49:04;;;;;;;8.65;1.85;;;;;;;7.39;100.00;99916.25;4946857;29;20027;-91
2022/10/18 01:51:32;;;;;;;11.10;2.65;;;;;;;7.52;100.00;99942.81;4947224;29;20055;-90
2022/10/18 01:53:58;;;;;;;12.40;1.88;;;;;;;7.36;100.00;99921.78;4946849;29;20094;-89
2022/10/18 01:56:26;;;;;;;8.18;2.05;;;;;;;7.61;100.00;99966.38;4946916;29;20043;-89
2022/10/18 01:58:55;;;;;;;10.30;1.75;;;;;;;7.55;100.00;99968.63;4946218;29;20039;-89
2022/10/18 02:01:27;;;;;;;8.75;2.10;;;;;;;7.53;100.00;99972.38;4946781;29;20059;-89
2022/10/18 02:03:59;;;;;;;13.45;1.88;;;;;;;7.52;100.00;99968.94;4947219;29;20039;-88
2022/10/18 02:06:31;;;;;;;15.02;2.35;;;;;;;7.60;100.00;99975.19;4963104;29;20027;-89
2022/10/18 02:09:17;;;;;;;9.73;2.45;;;;;;;7.55;100.00;99978.25;4962699;29;20067;-88
2022/10/18 02:11:47;;;;;;;16.20;2.25;;;;;;;7.38;100.00;99946.81;4942257;29;20059;-89
2022/10/18 02:14:15;;;;;;;6.95;2.03;;;;;;;7.33;100.00;99941.19;4946687;29;20063;-88
2022/10/18 02:16:44;;;;;;;7.72;2.22;;;;;;;7.51;100.00;99967.31;4962580;29;20051;-90
2022/10/18 02:19:17;;;;;;;15.88;2.53;;;;;;;7.52;100.00;99963.72;4946160;29;20445;-91
2022/10/18 02:21:45;;;;;;;10.43;2.03;;;;;;;7.48;100.00;99966.78;4945476;29;20134;-89
2022/10/18 02:24:13;;;;;;;10.77;2.33;;;;;;;7.58;100.00;99988.44;4961244;29;20042;-89
2022/10/18 02:26:38;;;;;;;13.18;2.60;;;;;;;7.55;100.00;99997.38;4961223;29;20525;-89
2022/10/18 02:29:04;;;;;;;8.68;2.38;;;;;;;7.35;100.00;99990.69;4962806;29;20054;-90
2022/10/18 02:31:36;;;;;;;20.63;2.35;;;;;;;7.39;100.00;99981.56;4961967;29;20035;-89
2022/10/18 02:34:12;;;;;;;12.10;1.95;;;;;;;7.47;100.00;100002.53;4942814;29;20070;-89
2022/10/18 02:36:46;;;;;;;17.15;2.40;;;;;;;7.50;100.00;99997.00;4944258;29;20078;-88
2022/10/18 02:39:16;;;;;;;12.30;2.60;;;;;;;7.44;100.00;99981.94;4943075;29;20027;-89
2022/10/18 02:41:42;;;;;;;9.60;2.92;;;;;;;7.52;100.00;99982.00;4943609;29;20039;-89
2022/10/18 02:44:09;;;;;;;13.95;2.38;;;;;;;7.63;100.00;100001.84;4960431;28;20194;-89
2022/10/18 02:46:35;;;;;;;14.43;2.80;;;;;;;7.69;100.00;100001.25;4943473;29;20434;-89
2022/10/18 02:49:00;;;;;;;10.65;2.42;;;;;;;7.73;100.00;99999.16;4943988;29;20034;-89
2022/10/18 02:51:26;;;;;;;15.10;2.53;;;;;;;7.64;100.00;99960.84;4962643;28;20027;-89
2022/10/18 02:53:52;;;;;;;22.15;2.65;;;;;;;7.75;100.00;99965.84;4964230;28;20066;-90
2022/10/18 02:56:17;;;;;;;18.27;2.63;;;;;;;7.84;100.00;99977.16;4962696;29;20478;-89
2022/10/18 02:58:43;;;;;;;19.98;2.45;;;;;;;7.84;100.00;99975.38;4963219;29;20042;-90
2022/10/18 03:01:10;;;;;;;22.95;3.10;;;;;;;7.94;100.00;99992.75;4946882;29;20031;-89
2022/10/18 03:03:37;;;;;;;23.48;3.47;;;;;;;7.89;100.00;99995.81;4962199;29;20038;-90
2022/10/18 03:06:02;;;;;;;8.52;2.65;;;;;;;7.88;100.00;99998.59;4946763;29;20037;-90
2022/10/18 03:08:28;;;;;;;13.50;2.33;;;;;;;7.58;100.00;99989.22;4962518;29;20438;-90
2022/10/18 03:10:55;;;;;;;6.50;1.90;;;;;;;7.61;100.00;100008.19;4946593;29;20028;-90
2022/10/18 03:13:23;;;;;;;18.67;2.50;;;;;;;7.23;100.00;99954.31;4961991;29;20039;-89
2022/10/18 03:15:52;;;;;;;10.63;2.40;;;;;;;7.47;100.00;100006.94;4948311;29;20035;-91
2022/10/18 03:18:21;;;;;;;7.55;1.90;;;;;;;7.22;100.00;99984.03;4949418;29;20127;-91
2022/10/18 03:20:51;;;;;;;17.70;3.15;;;;;;;6.98;100.00;99937.66;4948527;29;20031;-90
2022/10/18 03:23:21;;;;;;;14.93;2.13;;;;;;;7.25;100.00;100003.81;4947933;29;20074;-90
2022/10/18 03:25:49;;;;;;;10.77;1.92;;;;;;;7.37;100.00;100027.91;4963682;28;20035;-90
2022/10/18 03:28:18;;;;;;;9.90;2.08;;;;;;;7.36;100.00;100024.47;4948076;29;20583;-90
2022/10/18 03:30:44;;;;;;;11.63;2.53;;;;;;;7.38;100.00;100019.94;4947902;29;20343;-90
2022/10/18 03:33:11;;;;;;;15.07;2.80;;;;;;;7.40;100.00;100030.22;4963875;28;20046;-89
2022/10/18 03:35:37;;;;;;;12.38;2.40;;;;;;;7.30;100.00;100009.41;4947553;29;20035;-90
2022/10/18 03:38:02;;;;;;;7.15;1.85;;;;;;;7.06;100.00;99983.88;4963111;29;20115;-90
2022/10/18 03:40:28;;;;;;;10.43;2.28;;;;;;;7.08;100.00;100026.34;4945954;29;20035;-90
2022/10/18 03:42:54;;;;;;;17.60;3.22;;;;;;;7.17;100.00;100046.31;4961719;29;20121;-88
2022/10/18 03:45:19;;;;;;;8.55;2.20;;;;;;;6.92;100.00;100009.53;4962108;29;20031;-90
2022/10/18 03:47:45;;;;;;;12.30;2.40;;;;;;;7.02;100.00;100042.56;4964099;29;20474;-90
2022/10/18 03:50:11;;;;;;;22.23;2.90;;;;;;;7.02;100.00;100032.13;4946982;29;20410;-89
2022/10/18 03:52:37;;;;;;;12.55;3.47;;;;;;;6.93;100.00;100036.44;4979626;28;20037;-90
2022/10/18 03:55:03;;;;;;;16.58;2.55;;;;;;;6.91;100.00;100028.75;4963511;29;20035;-89
2022/10/18 03:57:28;;;;;;;16.92;2.63;;;;;;;6.75;100.00;100005.09;4963265;29;20054;-90
2022/10/18 03:59:54;;;;;;;11.65;2.20;;;;;;;7.01;100.00;100060.03;4948171;29;20050;-91
2022/10/18 04:02:20;;;;;;;8.65;2.15;;;;;;;6.82;100.00;100048.72;4963384;29;20035;-90
2022/10/18 04:04:45;;;;;;;9.07;2.22;;;;;;;6.66;100.00;100025.84;4961917;29;20035;-89
2022/10/18 04:07:11;;;;;;;8.93;2.20;;;;;;;6.53;100.00;100020.97;4962140;29;20035;-90
2022/10/18 04:09:36;;;;;;;8.05;2.13;;;;;;;6.41;100.00;100007.28;4943004;29;20443;-88
2022/10/18 04:12:02;;;;;;;7.20;1.95;;;;;;;6.33;100.00;99999.38;4944339;29;20115;-89
2022/10/18 04:14:28;;;;;;;4.80;1.67;;;;;;;6.64;100.00;100069.53;4944799;29;20038;-89
2022/10/18 04:16:53;;;;;;;8.05;2.10;;;;;;;6.53;100.00;100041.03;4943969;29;20493;-89
2022/10/18 04:19:19;;;;;;;8.85;2.30;;;;;;;6.56;100.00;100046.75;4943837;29;20023;-89
2022/10/18 04:21:45;;;;;;;8.70;2.50;;;;;;;6.63;100.00;100057.44;4958664;29;20078;-89
2022/10/18 04:24:11;;;;;;;8.38;2.30;;;;;;;6.55;100.00;100033.88;4959715;29;20031;-89
2022/10/18 04:26:37;;;;;;;12.23;2.63;;;;;;;6.57;100.00;100024.13;4944357;29;20400;-89
2022/10/18 04:29:03;;;;;;;9.43;2.60;;;;;;;6.76;100.00;100048.47;4944695;29;20098;-91
2022/10/18 04:31:28;;;;;;;17.88;3.10;;;;;;;7.00;100.00;100061.81;4944492;29;20079;-90
2022/10/18 04:33:54;;;;;;;19.55;3.25;;;;;;;7.10;100.00;100033.03;4943260;29;20039;-90
2022/10/18 04:36:20;;;;;;;12.27;2.85;;;;;;;7.18;100.00;100026.28;4944614;29;20500;-90
2022/10/18 04:38:47;;;;;;;21.63;3.05;;;;;;;7.32;100.00;100032.78;4945564;29;20042;-89
2022/10/18 04:41:13;;;;;;;12.40;2.25;;;;;;;7.13;100.00;100019.69;4945339;29;20051;-91
2022/10/18 04:43:40;;;;;;;12.77;2.72;;;;;;;7.29;100.00;100055.59;4945911;28;20516;-90
2022/10/18 04:46:05;;;;;;;17.77;2.67;;;;;;;6.93;100.00;99995.50;4951503;29;20039;-90
2022/10/18 04:48:31;;;;;;;14.20;2.67;;;;;;;7.10;100.00;100000.91;4950665;29;20038;-91
2022/10/18 04:50:56;;;;;;;19.48;2.75;;;;;;;7.29;100.00;100011.19;4951426;29;20426;-90
2022/10/18 04:53:22;;;;;;;15.95;2.70;;;;;;;7.67;100.00;100020.66;4950294;29;20042;-89
2022/10/18 04:55:49;;;;;;;12.05;2.55;;;;;;;7.84;100.00;100043.31;4951225;29;20027;-89
2022/10/18 04:58:16;;;;;;;27.27;3.78;;;;;;;7.80;100.00;100034.16;4950709;29;20035;-89
2022/10/18 05:00:42;;;;;;;14.77;3.08;;;;;;;7.93;100.00;100056.47;4951117;29;20043;-89
2022/10/18 05:03:11;;;;;;;18.58;3.97;;;;;;;7.91;100.00;100074.09;4967146;29;20138;-90
2022/10/18 05:05:38;;;;;;;15.35;3.03;;;;;;;7.63;100.00;100058.50;4949978;29;20114;-89
2022/10/18 05:08:06;;;;;;;14.73;2.88;;;;;;;7.43;100.00;100051.66;4966395;28;20114;-89
2022/10/18 05:10:31;;;;;;;17.42;3.03;;;;;;;7.33;100.00;100057.91;4950539;29;20057;-88
2022/10/18 05:12:57;;;;;;;14.18;2.88;;;;;;;7.40;100.00;100080.69;4951022;29;20039;-89
2022/10/18 05:15:22;;;;;;;17.23;2.80;;;;;;;7.61;100.00;100091.81;4951032;29;20078;-88
2022/10/18 05:17:49;;;;;;;23.42;4.10;;;;;;;7.64;100.00;100057.53;4951947;29;20042;-90
2022/10/18 05:20:18;;;;;;;17.00;2.80;;;;;;;7.68;100.00;100051.06;4967479;29;20100;-90
2022/10/18 05:22:43;;;;;;;23.02;3.30;;;;;;;7.74;100.00;100055.66;4968607;29;20039;-90
2022/10/18 05:25:09;;;;;;;22.88;3.00;;;;;;;7.90;100.00;100090.75;4951880;29;20031;-89
2022/10/18 05:27:36;;;;;;;12.65;2.28;;;;;;;7.23;100.00;100016.19;4951604;29;20031;-89
2022/10/18 05:30:03;;;;;;;13.85;2.85;;;;;;;7.22;100.00;100046.69;4966546;29;20066;-90
2022/10/18 05:32:29;;;;;;;8.32;2.25;;;;;;;7.11;100.00;100058.16;4951444;29;20035;-90
2022/10/18 05:34:55;;;;;;;21.10;4.07;;;;;;;7.32;100.00;100100.66;4951664;28;20064;-89
2022/10/18 05:37:20;;;;;;;13.45;4.35;;;;;;;7.09;100.00;100067.13;4950406;29;20063;-90
2022/10/18 05:39:46;;;;;;;15.35;2.90;;;;;;;7.33;100.00;100110.97;4967266;28;20485;-90
2022/10/18 05:42:12;;;;;;;32.30;3.80;;;;;;;7.20;100.00;100074.75;4950977;28;20050;-90
2022/10/18 05:44:38;;;;;;;24.98;3.47;;;;;;;7.07;100.00;100056.00;4950253;29;20494;-90
2022/10/18 05:47:03;;;;;;;14.57;2.60;;;;;;;7.36;100.00;100078.50;4949912;29;20034;-90
2022/10/18 05:49:29;;;;;;;21.63;3.28;;;;;;;7.59;100.00;100073.69;4964145;28;20536;-89
2022/10/18 05:51:55;;;;;;;22.88;3.20;;;;;;;7.80;100.00;100081.19;4948676;29;20031;-90
2022/10/18 05:54:20;;;;;;;23.50;3.40;;;;;;;7.86;100.00;100079.78;4966643;29;20042;-90
2022/10/18 05:56:46;;;;;;;11.48;2.60;;;;;;;8.05;100.00;100086.63;4949624;29;20131;-89
2022/10/18 05:59:11;;;;;;;16.42;3.13;;;;;;;8.10;100.00;100079.16;4948289;29;20027;-89
2022/10/18 06:01:38;;;;;;;18.52;3.67;;;;;;;8.02;100.00;100041.66;4943120;29;20051;-86
2022/10/18 06:04:04;;;;;;;25.92;4.43;;;;;;;8.38;100.00;100067.72;4957309;29;20035;-87
2022/10/18 06:06:31;;;;;;;24.02;4.47;;;;;;;8.54;100.00;100099.22;4957302;29;20055;-86
2022/10/18 06:08:57;;;;;;;13.55;4.28;;;;;;;8.54;100.00;100093.19;4956946;29;20489;-84
2022/10/18 06:11:23;;;;;;;18.30;8.45;;;;;;;8.14;100.00;100082.25;4957235;29;20035;-85
2022/10/18 06:13:50;;;;;;;18.75;7.65;;;;;;;7.98;100.00;100103.88;4957341;29;20114;-84
2022/10/18 06:16:17;;;;;;;12.15;5.63;;;;;;;7.72;100.00;100105.47;4958104;29;20512;-84
2022/10/18 06:18:47;;;;;;;12.82;4.75;;;;;;;7.33;100.00;100084.84;4957948;28;20504;-86
2022/10/18 06:21:13;;;;;;;8.00;2.95;;;;;;;7.19;100.00;100098.41;4958384;28;20045;-86
2022/10/18 06:23:39;;;;;;;7.43;2.85;;;;;;;7.08;100.00;100109.88;4958180;28;20464;-86
2022/10/18 06:26:09;;;;;;;22.00;5.18;;;;;;;7.09;100.00;100119.34;4956938;29;20031;-85
2022/10/18 06:28:35;;;;;;;14.05;3.10;;;;;;;6.76;100.00;100082.41;4957653;28;20422;-86
2022/10/18 06:31:01;;;;;;;24.35;3.90;;;;;;;6.82;100.00;100097.47;4957012;29;20067;-84
2022/10/18 06:33:30;;;;;;;13.30;3.50;;;;;;;6.97;100.00;100100.41;4956469;29;20437;-85
2022/10/18 06:35:57;;;;;;;16.08;4.10;;;;;;;6.88;100.00;100083.88;4940148;29;20045;-85
2022/10/18 06:38:24;;;;;;;15.52;3.80;;;;;;;7.23;100.00;100126.69;4956484;28;20493;-85
2022/10/18 06:40:50;;;;;;;13.23;3.50;;;;;;;7.17;100.00;100129.88;4938959;29;20039;-85
2022/10/18 06:43:16;;;;;;;27.65;4.40;;;;;;;7.04;100.00;100100.66;4957112;28;20054;-88
2022/10/18 06:45:41;;;;;;;18.70;4.00;;;;;;;7.09;100.00;100103.69;4955587;29;20031;-86
2022/10/18 06:48:07;;;;;;;16.25;2.80;;;;;;;7.03;100.00;100093.81;4940584;29;20093;-88
2022/10/18 06:50:32;;;;;;;12.13;3.65;;;;;;;7.11;100.00;100112.19;4957163;29;20037;-86
2022/10/18 06:52:58;;;;;;;15.70;3.67;;;;;;;7.07;100.00;100105.59;4955884;29;20478;-87
2022/10/18 06:55:24;;;;;;;12.20;2.90;;;;;;;6.91;100.00;100091.41;4955528;29;20023;-87
2022/10/18 06:57:50;;;;;;;22.33;3.53;;;;;;;7.21;100.00;100127.81;4956262;28;20054;-87
2022/10/18 07:00:15;;;;;;;14.02;3.67;;;;;;;7.31;100.00;100146.03;4955002;29;20102;-88
2022/10/18 07:02:41;;;;;;;11.73;3.47;;;;;;;7.09;100.00;100104.50;4954832;28;20027;-83
2022/10/18 07:05:07;;;;;;;11.60;3.95;;;;;;;7.35;100.00;100144.78;4956509;28;20027;-86
2022/10/18 07:07:33;;;;;;;15.55;4.03;;;;;;;7.33;100.00;100151.94;4938540;29;20030;-85
2022/10/18 07:09:59;;;;;;;16.20;4.10;;;;;;;7.28;100.00;100145.38;4936778;29;20035;-86
2022/10/18 07:12:25;;;;;;;13.40;3.33;;;;;;;7.27;100.00;100148.13;4950631;29;20035;-84
2022/10/18 07:14:50;;;;;;;14.45;3.65;;;;;;;7.45;100.00;100161.19;4953318;29;20027;-83
2022/10/18 07:17:16;;;;;;;9.35;3.15;;;;;;;7.33;100.00;100133.66;4954596;29;20049;-82
2022/10/18 07:19:42;;;;;;;14.75;3.15;;;;;;;7.47;100.00;100151.47;4936659;29;20031;-82
2022/10/18 07:22:10;;;;;;;12.50;3.80;;;;;;;7.74;100.00;100181.13;4952955;29;20085;-82
2022/10/18 07:24:41;;;;;;;16.70;4.68;;;;;;;7.68;100.00;100150.38;4953095;29;20035;-82
2022/10/18 07:27:07;;;;;;;15.77;3.90;;;;;;;7.90;100.00;100179.66;4935163;29;20031;-81
2022/10/18 07:29:33;;;;;;;16.00;3.85;;;;;;;8.08;100.00;100203.16;4954497;28;20371;-82
2022/10/18 07:31:59;;;;;;;12.85;4.35;;;;;;;8.09;100.00;100202.19;4936183;29;20678;-82
2022/10/18 07:34:24;;;;;;;24.65;4.35;;;;;;;8.11;100.00;100203.72;4951773;29;20034;-82
2022/10/18 07:36:50;;;;;;;15.98;4.72;;;;;;;8.15;100.00;100205.03;4936537;29;20058;-83
2022/10/18 07:39:16;;;;;;;16.08;4.35;;;;;;;8.16;100.00;100205.88;4953149;29;20077;-83
2022/10/18 07:41:41;;;;;;;13.45;4.40;;;;;;;8.11;100.00;100201.09;4953460;29;20036;-82
2022/10/18 07:44:08;;;;;;;16.00;4.88;;;;;;;8.08;100.00;100211.03;4937447;29;20057;-83
2022/10/18 07:46:34;;;;;;;15.88;4.72;;;;;;;8.17;100.00;100225.00;4954629;28;20039;-83
2022/10/18 07:48:59;;;;;;;20.42;6.60;;;;;;;8.23;100.00;100234.84;4953314;29;20046;-81
2022/10/18 07:51:25;;;;;;;20.63;7.00;;;;;;;8.24;100.00;100234.72;4953289;29;20050;-82
2022/10/18 07:53:52;;;;;;;21.00;5.15;;;;;;;8.47;100.00;100229.00;4954837;28;20498;-83
2022/10/18 07:56:20;;;;;;;19.48;5.40;;;;;;;8.67;100.00;100229.72;4952868;29;20042;-83
2022/10/18 07:58:50;;;;;;;24.63;6.10;;;;;;;8.82;100.00;100253.53;4934707;29;20481;-83
2022/10/18 08:01:15;;;;;;;33.33;10.00;;;;;;;8.72;100.00;100247.56;4953401;29;20042;-84
2022/10/18 08:03:42;;;;;;;23.98;9.25;;;;;;;8.62;100.00;100244.22;4952405;28;20027;-83
2022/10/18 08:06:10;;;;;;;26.15;8.80;;;;;;;8.52;100.00;100246.91;4950850;29;20434;-84
2022/10/18 08:08:37;;;;;;;20.13;6.72;;;;;;;8.60;100.00;100269.72;4952526;28;20453;-83
2022/10/18 08:11:04;;;;;;;12.23;5.72;;;;;;;8.65;100.00;100270.91;4952456;29;20034;-82
2022/10/18 08:13:31;;;;;;;14.10;5.20;;;;;;;8.57;100.00;100270.84;4950826;29;20162;-83
2022/10/18 08:16:02;;;;;;;14.80;5.55;;;;;;;8.54;100.00;100265.91;4950767;29;20031;-82
2022/10/18 08:18:29;;;;;;;17.90;5.30;;;;;;;8.66;100.00;100293.50;4952406;28;20065;-82
2022/10/18 08:20:55;;;;;;;14.02;4.82;;;;;;;8.60;100.00;100270.53;4935908;29;20165;-81
2022/10/18 08:23:20;;;;;;;19.98;4.85;;;;;;;8.75;100.00;100293.56;4952928;29;20039;-84
2022/10/18 08:25:46;;;;;;;14.45;5.07;;;;;;;8.74;100.00;100284.06;4952432;29;20129;-83
2022/10/18 08:28:12;;;;;;;16.13;4.68;;;;;;;8.88;100.00;100296.63;4953037;28;20374;-83
2022/10/18 08:30:38;;;;;;;10.02;4.60;;;;;;;8.92;100.00;100295.34;4952461;29;20035;-84
2022/10/18 08:33:05;;;;;;;11.00;4.25;;;;;;;9.03;100.00;100306.53;4951403;29;20434;-84
2022/10/18 08:35:31;;;;;;;13.20;4.13;;;;;;;8.99;100.00;100300.78;4953454;28;20064;-82
2022/10/18 08:37:57;;;;;;;12.40;3.75;;;;;;;9.08;100.00;100320.81;4935088;29;20110;-83
2022/10/18 08:40:25;;;;;;;19.27;4.50;;;;;;;9.17;100.00;100318.25;4951851;29;20081;-83
2022/10/18 08:43:22;;;;;;;16.23;3.92;;;;;;;9.27;100.00;100313.72;4952154;29;20398;-84
2022/10/18 08:45:50;;;;;;;15.02;3.92;;;;;;;9.23;100.00;100310.59;4950762;29;20101;-82
2022/10/18 08:48:23;;;;;;;12.77;3.90;;;;;;;9.35;100.00;100326.91;4952778;28;20028;-83
2022/10/18 08:50:53;;;;;;;11.77;4.28;;;;;;;9.41;100.00;100341.16;4954313;28;20066;-82
2022/10/18 08:53:25;;;;;;;11.38;4.05;;;;;;;9.60;100.00;100345.38;4952914;29;20039;-82
2022/10/18 08:55:58;;;;;;;13.40;3.90;;;;;;;9.64;100.00;100340.66;4951935;29;20039;-83
2022/10/18 08:58:29;;;;;;;13.85;4.60;;;;;;;9.54;100.00;100319.78;4951184;29;20082;-83
2022/10/18 09:01:07;;;;;;;13.88;4.43;;;;;;;9.54;100.00;100328.47;4937012;29;20063;-85
2022/10/18 09:03:50;;;;;;;15.65;4.82;;;;;;;9.76;100.00;100349.06;4934701;29;20085;-86
2022/10/18 09:06:38;;;;;;;14.93;4.90;;;;;;;9.69;100.00;100317.41;4936348;29;20027;-86
2022/10/18 09:09:06;;;;;;;18.77;4.78;;;;;;;9.83;100.00;100348.28;4951849;29;20039;-86
2022/10/18 09:11:46;;;;;;;17.52;4.80;;;;;;;9.84;100.00;100342.06;4935184;29;20046;-85
2022/10/18 09:14:32;;;;;;;16.27;4.43;;;;;;;9.94;100.00;100348.97;4952105;29;20504;-85
2022/10/18 09:17:13;;;;;;;27.05;6.80;;;;;;;10.03;100.00;100350.66;4951237;29;20398;-88
2022/10/18 09:19:54;;;;;;;22.05;6.28;;;;;;;10.03;100.00;100349.81;4935470;29;20114;-86
2022/10/18 09:22:36;;;;;;;16.92;5.80;;;;;;;10.03;100.00;100334.09;4952025;29;20561;-85
2022/10/18 09:25:16;;;;;;;15.48;4.90;;;;;;;10.18;100.00;100339.53;4952078;29;20027;-86
2022/10/18 09:27:51;;;;;;;19.63;5.13;;;;;;;10.29;100.00;100342.69;4951014;29;20051;-85
2022/10/18 09:30:40;;;;;;;25.02;7.10;;;;;;;10.23;100.00;100318.91;4951427;28;20031;-85
2022/10/18 09:33:33;;;;;;;18.02;4.65;;;;;;;10.38;100.00;100343.53;4953521;29;20043;-86
2022/10/18 09:36:03;;;;;;;15.20;4.27;;;;;;;10.39;100.00;100349.59;4955433;29;20035;-85
2022/10/18 09:38:51;;;;;;;22.95;5.10;;;;;;;10.42;100.00;100351.94;4955005;29;20456;-84
2022/10/18 09:41:24;;;;;;;19.73;7.03;;;;;;;10.30;100.00;100335.63;4938213;29;20506;-84
2022/10/18 09:44:01;;;;;;;22.35;6.00;;;;;;;10.25;100.00;100330.88;4955495;29;20031;-84
2022/10/18 09:46:35;;;;;;;17.83;4.78;;;;;;;10.31;100.00;100347.78;4955079;29;20389;-85
2022/10/18 09:49:04;;;;;;;22.23;5.75;;;;;;;10.31;100.00;100350.41;4956660;28;20086;-85
2022/10/18 09:51:35;;;;;;;19.63;5.07;;;;;;;10.42;100.00;100360.66;4956631;28;20038;-85
2022/10/18 09:54:21;;;;;;;18.60;5.40;;;;;;;10.43;100.00;100345.69;4936118;29;20117;-84
2022/10/18 09:56:48;;;;;;;21.25;5.55;;;;;;;10.55;100.00;100369.84;4955312;29;20050;-85
2022/10/18 09:59:37;;;;;;;21.17;6.53;;;;;;;10.60;100.00;100364.91;4956446;28;20488;-85
2022/10/18 10:02:04;;;;;;;22.40;7.07;;;;;;;10.60;100.00;100367.53;4956202;28;20112;-85
2022/10/18 10:04:30;;;;;;;29.98;9.68;;;;;;;10.62;100.00;100373.47;4939582;29;20031;-86
2022/10/18 10:06:59;;;;;;;29.38;12.38;;;;;;;10.81;100.00;100385.47;4939015;29;20057;-85
2022/10/18 10:09:28;;;;;;;27.23;12.00;;;;;;;10.80;100.00;100389.09;4956028;29;20023;-86
2022/10/18 10:11:54;;;;;;;29.80;13.88;;;;;;;10.79;100.00;100383.97;4952176;29;20058;-86
2022/10/18 10:14:25;;;;;;;38.65;17.50;;;;;;;10.83;100.00;100382.69;4941062;29;20126;-87
2022/10/18 10:17:01;;;;;;;40.65;16.25;;;;;;;10.95;100.00;100391.88;4941662;29;20061;-86
2022/10/18 10:19:34;;;;;;;43.13;19.35;;;;;;;11.01;100.00;100385.16;4956939;29;20039;-88
2022/10/18 10:22:08;;;;;;;33.97;14.77;;;;;;;11.15;100.00;100404.69;4956758;29;20504;-87
2022/10/18 10:24:46;;;;;;;37.08;13.48;;;;;;;11.21;100.00;100408.47;4956265;29;20121;-87
2022/10/18 10:27:26;;;;;;;27.00;11.52;;;;;;;11.05;100.00;100396.97;4940170;29;20114;-88
2022/10/18 10:29:55;;;;;;;23.58;10.57;;;;;;;11.00;100.00;100389.59;4958250;28;20045;-87
2022/10/18 10:32:23;;;;;;;27.67;10.52;;;;;;;11.06;100.00;100403.06;4956358;29;20492;-85
2022/10/18 10:34:50;;;;;;;26.98;11.98;;;;;;;11.18;100.00;100420.13;4957306;28;20038;-86
2022/10/18 10:37:21;;;;;;;28.90;13.27;;;;;;;11.25;100.00;100421.13;4939860;29;20163;-88
2022/10/18 10:40:38;;;;;;;29.25;10.23;;;;;;;11.22;100.00;100424.09;4936060;29;20031;-87
2022/10/18 10:43:17;;;;;;;17.00;7.80;;;;;;;11.07;100.00;100408.13;4896971;29;20047;-87
2022/10/18 10:45:58;;;;;;;24.85;9.55;;;;;;;11.25;100.00;100415.03;4947656;29;20034;-88
2022/10/18 10:48:26;;;;;;;30.08;10.43;;;;;;;11.28;100.00;100418.16;4957579;28;20031;-86
2022/10/18 10:51:00;;;;;;;26.25;9.48;;;;;;;11.38;100.00;100406.66;4939487;29;20038;-87
2022/10/18 10:53:34;;;;;;;23.67;8.90;;;;;;;11.25;100.00;100384.34;4955449;29;20456;-87
2022/10/18 10:56:04;;;;;;;18.73;7.20;;;;;;;11.26;100.00;100383.34;4953448;29;20550;-86
2022/10/18 10:58:36;;;;;;;27.00;7.18;;;;;;;11.32;100.00;100396.81;4957294;29;20438;-87
2022/10/18 11:01:27;;;;;;;19.92;6.07;;;;;;;11.55;100.00;100426.69;4941777;29;20114;-88
2022/10/18 11:03:59;;;;;;;16.95;5.78;;;;;;;11.10;100.00;100359.69;4941454;29;20381;-88
2022/10/18 11:06:45;;;;;;;18.90;7.47;;;;;;;11.47;100.00;100389.91;4941404;29;20054;-85
2022/10/18 11:09:23;;;;;;;16.25;7.70;;;;;;;11.38;100.00;100375.94;4941633;29;20131;-86
2022/10/18 11:12:04;;;;;;;18.13;8.55;;;;;;;11.16;100.00;100348.53;4938879;29;20038;-87
2022/10/18 11:14:39;;;;;;;19.25;7.30;;;;;;;11.38;100.00;100364.59;4939230;29;20039;-85
2022/10/18 11:17:26;;;;;;;23.08;7.57;;;;;;;11.39;100.00;100363.59;4958443;28;20035;-86
2022/10/18 11:20:10;;;;;;;26.45;8.20;;;;;;;11.47;100.00;100368.03;4957279;29;20053;-87
2022/10/18 11:22:59;;;;;;;23.65;8.30;;;;;;;11.73;100.00;100395.94;4957963;29;20031;-86
2022/10/18 11:25:37;;;;;;;20.55;7.50;;;;;;;11.72;100.00;100397.72;4938289;29;20035;-88
2022/10/18 11:28:09;;;;;;;16.75;7.32;;;;;;;11.65;100.00;100366.00;4958261;28;20033;-86
2022/10/18 11:30:54;;;;;;;18.85;7.32;;;;;;;11.75;100.00;100359.75;4941095;29;20035;-88